Time;durP1;ratioP1;P1;durP2;ratioP2;P2;SDS_P1;SDS_P2;PMS_P1;PMS_P2;Temp;Humidity;BMP_temperature;BMP_pressure;BME280_temperature;BME280_humidity;BME280_pressure;Samples;Min_cycle;Max_cycle;Signal;HPM_P1;HPM_P2
2022/08/26 00:00:56;;;;;;;3.85;2.92;;;;;;;;;;8354079;28;20167;-58
2022/08/26 00:04:56;;;;;;;3.10;2.80;;;;;;;;;;8354454;28;20027;-58
2022/08/26 00:08:56;;;;;;;3.70;3.40;;;;;;;;;;8356322;28;22214;-58
2022/08/26 00:12:56;;;;;;;4.95;3.03;;;;;;;;;;8355514;28;20687;-58
2022/08/26 00:16:57;;;;;;;4.43;2.90;;;;;;;;;;8354441;28;20845;-58
2022/08/26 00:20:57;;;;;;;3.17;2.83;;;;;;;;;;8350078;28;20043;-58
2022/08/26 00:24:57;;;;;;;6.55;3.17;;;;;;;;;;8357637;28;20278;-58
2022/08/26 00:28:57;;;;;;;4.70;3.50;;;;;;;;;;8355388;28;20028;-58
2022/08/26 00:32:58;;;;;;;3.65;3.25;;;;;;;;;;8353801;28;20056;-58
2022/08/26 00:36:58;;;;;;;3.42;3.13;;;;;;;;;;8355630;28;20158;-58
2022/08/26 00:40:58;;;;;;;3.63;3.33;;;;;;;;;;8353169;28;20052;-58
2022/08/26 00:45:00;;;;;;;5.40;3.50;;;;;;;;;;8355949;28;20106;-58
2022/08/26 00:49:06;;;;;;;3.78;3.33;;;;;;;;;;8352583;28;20037;-58
2022/08/26 00:53:20;;;;;;;3.88;3.28;;;;;;;;;;8353115;28;20033;-58
2022/08/26 00:57:21;;;;;;;3.33;2.90;;;;;;;;;;8355128;28;20024;-58
2022/08/26 01:01:21;;;;;;;3.75;3.33;;;;;;;;;;8353942;28;20576;-58
2022/08/26 01:05:22;;;;;;;4.13;3.20;;;;;;;;;;8353692;28;20548;-58
2022/08/26 01:09:23;;;;;;;3.67;3.38;;;;;;;;;;8352727;28;20082;-58
2022/08/26 01:13:23;;;;;;;5.40;3.80;;;;;;;;;;8350590;28;20349;-58
2022/08/26 01:17:24;;;;;;;3.50;3.20;;;;;;;;;;8348990;28;20158;-58
2022/08/26 01:21:24;;;;;;;8.02;3.70;;;;;;;;;;8348610;28;20047;-58
2022/08/26 01:25:26;;;;;;;4.50;3.00;;;;;;;;;;8354021;28;20020;-58
2022/08/26 01:29:27;;;;;;;3.55;3.25;;;;;;;;;;8353961;28;20434;-58
2022/08/26 01:33:34;;;;;;;3.83;3.20;;;;;;;;;;8350750;28;20127;-58
2022/08/26 01:37:36;;;;;;;3.50;3.17;;;;;;;;;;8352435;28;20033;-58
2022/08/26 01:41:37;;;;;;;3.97;3.65;;;;;;;;;;8351755;28;20063;-58
2022/08/26 01:45:39;;;;;;;7.78;3.30;;;;;;;;;;8351125;28;20098;-58
2022/08/26 01:49:40;;;;;;;4.80;3.50;;;;;;;;;;8352344;28;20039;-57
2022/08/26 01:53:42;;;;;;;5.80;3.38;;;;;;;;;;8352215;28;20302;-58
2022/08/26 01:57:44;;;;;;;5.30;3.33;;;;;;;;;;8351583;28;20383;-58
2022/08/26 02:01:44;;;;;;;3.78;3.40;;;;;;;;;;8350743;28;20480;-58
2022/08/26 02:05:46;;;;;;;4.00;3.50;;;;;;;;;;8351508;28;20462;-58
2022/08/26 02:09:46;;;;;;;4.57;3.40;;;;;;;;;;8356989;28;20077;-58
2022/08/26 02:13:50;;;;;;;5.15;3.45;;;;;;;;;;8353203;28;20034;-58
2022/08/26 02:17:50;;;;;;;5.15;3.47;;;;;;;;;;8346367;28;20131;-58
2022/08/26 02:21:51;;;;;;;3.97;3.13;;;;;;;;;;8349645;28;20161;-58
2022/08/26 02:25:54;;;;;;;3.50;3.20;;;;;;;;;;8349872;28;20373;-58
2022/08/26 02:29:54;;;;;;;;;;;;;;;;;;8350174;28;20121;-58
2022/08/26 02:33:55;;;;;;;4.35;3.42;;;;;;;;;;8349050;28;19916;-57
2022/08/26 02:37:55;;;;;;;4.20;3.45;;;;;;;;;;8349155;28;20039;-58
2022/08/26 02:41:56;;;;;;;5.82;3.47;;;;;;;;;;8350598;28;21752;-58
2022/08/26 02:45:56;;;;;;;6.25;3.30;;;;;;;;;;8349245;28;20037;-58
2022/08/26 02:49:57;;;;;;;5.38;3.80;;;;;;;;;;8349337;28;20105;-58
2022/08/26 02:53:57;;;;;;;4.05;3.30;;;;;;;;;;8349006;28;20036;-58
2022/08/26 02:57:57;;;;;;;4.90;3.67;;;;;;;;;;8350833;28;20154;-58
2022/08/26 03:01:57;;;;;;;5.90;3.50;;;;;;;;;;8346700;28;20106;-58
2022/08/26 03:05:57;;;;;;;4.00;3.57;;;;;;;;;;8351632;28;20036;-58
2022/08/26 03:09:58;;;;;;;5.25;3.75;;;;;;;;;;8349718;28;20116;-58
2022/08/26 03:13:59;;;;;;;4.53;3.60;;;;;;;;;;8348303;28;20030;-58
2022/08/26 03:18:00;;;;;;;5.82;3.60;;;;;;;;;;8349002;28;20375;-58
2022/08/26 03:22:01;;;;;;;3.95;3.58;;;;;;;;;;8346967;28;20028;-57
2022/08/26 03:26:01;;;;;;;4.75;3.42;;;;;;;;;;8349895;28;20090;-58
2022/08/26 03:34:21;;;;;;;3.95;3.50;;;;;;;;;;8355748;28;20326;-58
2022/08/26 03:38:23;;;;;;;5.00;3.83;;;;;;;;;;8355818;28;20473;-58
2022/08/26 03:42:24;;;;;;;4.53;3.27;;;;;;;;;;8357041;28;20025;-58
2022/08/26 03:46:24;;;;;;;6.53;3.90;;;;;;;;;;8354026;28;20082;-58
2022/08/26 03:50:24;;;;;;;4.03;3.55;;;;;;;;;;8355277;28;20115;-58
2022/08/26 03:54:25;;;;;;;5.15;3.70;;;;;;;;;;8355564;28;20518;-58
2022/08/26 03:58:25;;;;;;;6.40;3.55;;;;;;;;;;8354767;28;20117;-58
2022/08/26 04:02:26;;;;;;;4.88;3.67;;;;;;;;;;8352941;28;20036;-58
2022/08/26 04:06:37;;;;;;;7.38;3.40;;;;;;;;;;8354117;28;20362;-58
2022/08/26 04:10:37;;;;;;;4.60;3.30;;;;;;;;;;8355941;28;20794;-57
2022/08/26 04:14:37;;;;;;;7.43;3.28;;;;;;;;;;8355418;28;20036;-57
2022/08/26 04:18:37;;;;;;;6.70;3.28;;;;;;;;;;8351547;28;20521;-58
2022/08/26 04:22:38;;;;;;;4.45;3.72;;;;;;;;;;8353445;28;20070;-57
2022/08/26 04:26:38;;;;;;;4.68;3.45;;;;;;;;;;8354406;28;20074;-58
2022/08/26 04:30:39;;;;;;;4.50;3.20;;;;;;;;;;8351364;28;20082;-57
2022/08/26 04:34:39;;;;;;;7.10;3.70;;;;;;;;;;8354499;28;20028;-58
2022/08/26 04:38:39;;;;;;;5.32;3.50;;;;;;;;;;8354889;28;20054;-58
2022/08/26 04:42:41;;;;;;;5.82;3.10;;;;;;;;;;8352417;28;20366;-58
2022/08/26 04:46:41;;;;;;;5.28;3.42;;;;;;;;;;8352107;28;20024;-57
2022/08/26 04:50:41;;;;;;;6.00;3.38;;;;;;;;;;8352421;28;20024;-57
2022/08/26 04:54:42;;;;;;;7.22;3.22;;;;;;;;;;8354853;28;20540;-58
2022/08/26 04:58:42;;;;;;;5.68;3.30;;;;;;;;;;8353444;28;20735;-58
2022/08/26 05:02:42;;;;;;;6.35;3.30;;;;;;;;;;8352433;28;20043;-57
2022/08/26 05:06:42;;;;;;;4.63;3.53;;;;;;;;;;8353932;28;20028;-58
2022/08/26 05:10:48;;;;;;;7.40;3.58;;;;;;;;;;8353540;28;20358;-57
2022/08/26 05:14:48;;;;;;;6.50;3.25;;;;;;;;;;8351972;28;20036;-58
2022/08/26 05:18:48;;;;;;;5.85;3.70;;;;;;;;;;8352394;28;20417;-58
2022/08/26 05:22:48;;;;;;;7.70;3.60;;;;;;;;;;8351651;28;20568;-58
2022/08/26 05:26:48;;;;;;;6.10;3.50;;;;;;;;;;8352672;28;20677;-58
2022/08/26 05:30:51;;;;;;;7.23;3.33;;;;;;;;;;8351800;28;20037;-58
2022/08/26 05:34:54;;;;;;;5.28;3.78;;;;;;;;;;8350981;28;20271;-58
2022/08/26 05:38:55;;;;;;;4.20;3.80;;;;;;;;;;8352883;28;20148;-57
2022/08/26 05:42:55;;;;;;;6.05;3.92;;;;;;;;;;8351547;28;20028;-58
2022/08/26 05:46:55;;;;;;;7.00;4.20;;;;;;;;;;8351614;28;20048;-58
2022/08/26 05:50:55;;;;;;;8.43;4.07;;;;;;;;;;8351173;28;20055;-58
2022/08/26 05:54:55;;;;;;;7.63;4.38;;;;;;;;;;8353542;28;20024;-58
2022/08/26 05:58:56;;;;;;;5.03;4.33;;;;;;;;;;8350849;28;20103;-58
2022/08/26 06:02:56;;;;;;;7.28;4.40;;;;;;;;;;8351115;28;20032;-58
2022/08/26 06:06:57;;;;;;;6.07;3.83;;;;;;;;;;8351051;28;20029;-58
2022/08/26 06:11:02;;;;;;;7.82;4.45;;;;;;;;;;8350254;28;20044;-58
2022/08/26 06:15:02;;;;;;;4.97;4.32;;;;;;;;;;8340623;28;20056;-60
2022/08/26 06:19:03;;;;;;;5.83;4.27;;;;;;;;;;8351206;28;20033;-57
2022/08/26 06:27:21;;;;;;;6.28;4.18;;;;;;;;;;8354599;28;20031;-58
2022/08/26 06:31:22;;;;;;;7.43;4.30;;;;;;;;;;8352043;28;20068;-58
2022/08/26 06:35:22;;;;;;;7.30;4.43;;;;;;;;;;8352056;28;20067;-59
2022/08/26 06:39:23;;;;;;;5.25;4.30;;;;;;;;;;8353264;28;20557;-58
2022/08/26 06:43:24;;;;;;;9.20;4.67;;;;;;;;;;8350846;28;20571;-59
2022/08/26 06:47:25;;;;;;;5.57;4.50;;;;;;;;;;8350593;28;20260;-59
2022/08/26 06:51:26;;;;;;;8.48;5.00;;;;;;;;;;8349711;28;20428;-58
2022/08/26 06:55:26;;;;;;;7.90;4.50;;;;;;;;;;8350679;28;20492;-59
2022/08/26 06:59:27;;;;;;;5.35;4.40;;;;;;;;;;8351756;28;20481;-59
2022/08/26 07:03:27;;;;;;;5.32;4.40;;;;;;;;;;8348478;28;20040;-59
2022/08/26 07:07:28;;;;;;;7.85;4.90;;;;;;;;;;8349816;28;20058;-59
2022/08/26 07:11:28;;;;;;;4.85;4.40;;;;;;;;;;8349845;28;20099;-59
2022/08/26 07:15:28;;;;;;;11.57;4.50;;;;;;;;;;8348818;28;20163;-60
2022/08/26 07:19:29;;;;;;;6.07;4.50;;;;;;;;;;8348805;28;20020;-59
2022/08/26 07:23:29;;;;;;;4.78;4.38;;;;;;;;;;8348173;28;20492;-58
2022/08/26 07:27:30;;;;;;;4.55;4.05;;;;;;;;;;8347829;28;20481;-59
2022/08/26 07:31:31;;;;;;;6.32;3.90;;;;;;;;;;8347147;28;20028;-59
2022/08/26 07:35:31;;;;;;;5.60;3.70;;;;;;;;;;8349014;28;20029;-59
2022/08/26 07:39:31;;;;;;;6.40;3.70;;;;;;;;;;8350280;28;20108;-58
2022/08/26 07:43:32;;;;;;;4.25;3.85;;;;;;;;;;8348446;28;20321;-59
2022/08/26 07:47:33;;;;;;;7.82;4.03;;;;;;;;;;8347516;28;20040;-59
2022/08/26 07:51:33;;;;;;;6.93;4.10;;;;;;;;;;8347230;28;20255;-59
2022/08/26 07:55:33;;;;;;;8.35;4.63;;;;;;;;;;8348799;28;20029;-59
2022/08/26 07:59:33;;;;;;;5.05;3.72;;;;;;;;;;8350580;28;20017;-59
2022/08/26 08:03:33;;;;;;;7.28;4.30;;;;;;;;;;8347635;28;20560;-59
2022/08/26 08:07:34;;;;;;;7.75;4.65;;;;;;;;;;8353740;28;20081;-59
2022/08/26 08:11:34;;;;;;;9.10;4.70;;;;;;;;;;8363749;28;20114;-59
2022/08/26 08:15:36;;;;;;;7.87;4.20;;;;;;;;;;8363027;28;20182;-59
2022/08/26 08:19:36;;;;;;;4.68;4.07;;;;;;;;;;8364780;28;20436;-59
2022/08/26 08:23:36;;;;;;;6.05;4.82;;;;;;;;;;8361387;28;20043;-59
2022/08/26 08:27:37;;;;;;;6.50;3.80;;;;;;;;;;8361817;28;20039;-60
2022/08/26 08:31:40;;;;;;;5.33;3.73;;;;;;;;;;8359827;28;20039;-59
2022/08/26 08:35:41;;;;;;;5.82;4.18;;;;;;;;;;8362717;28;20059;-59
2022/08/26 08:39:42;;;;;;;5.30;3.50;;;;;;;;;;8362260;28;20415;-59
2022/08/26 08:43:43;;;;;;;6.70;3.83;;;;;;;;;;8359868;28;20025;-59
2022/08/26 08:47:51;;;;;;;4.57;4.05;;;;;;;;;;8360607;28;20028;-60
2022/08/26 08:51:57;;;;;;;7.43;4.50;;;;;;;;;;8361164;28;20039;-59
2022/08/26 08:56:07;;;;;;;5.75;4.30;;;;;;;;;;8361784;28;20507;-59
2022/08/26 09:00:11;;;;;;;10.25;4.10;;;;;;;;;;8360963;28;20020;-61
2022/08/26 09:04:30;;;;;;;9.85;4.95;;;;;;;;;;8361154;28;20555;-59
2022/08/26 09:08:33;;;;;;;7.85;4.07;;;;;;;;;;8361904;28;20882;-59
2022/08/26 09:12:34;;;;;;;5.43;4.45;;;;;;;;;;8359687;28;20024;-60
2022/08/26 09:16:34;;;;;;;5.43;4.40;;;;;;;;;;8357653;28;20058;-59
2022/08/26 09:20:40;;;;;;;5.85;4.32;;;;;;;;;;8359040;28;20028;-60
2022/08/26 09:24:40;;;;;;;6.72;3.97;;;;;;;;;;8359459;28;20118;-59
2022/08/26 09:28:43;;;;;;;6.05;4.00;;;;;;;;;;8360376;28;20162;-59
2022/08/26 09:32:56;;;;;;;6.20;4.30;;;;;;;;;;8360324;28;20033;-60
2022/08/26 09:36:57;;;;;;;6.80;4.30;;;;;;;;;;8360260;28;20450;-59
2022/08/26 09:40:57;;;;;;;;;;;;;;;;;;8361976;28;20048;-60
2022/08/26 09:45:00;;;;;;;8.57;4.43;;;;;;;;;;8360986;28;20229;-59
2022/08/26 09:49:19;;;;;;;9.25;4.13;;;;;;;;;;8360998;28;20040;-59
2022/08/26 09:53:21;;;;;;;6.97;4.72;;;;;;;;;;8357009;28;20044;-59
2022/08/26 09:57:26;;;;;;;8.73;4.30;;;;;;;;;;8362055;28;20361;-59
2022/08/26 10:01:40;;;;;;;7.03;4.75;;;;;;;;;;8358740;28;20028;-60
2022/08/26 10:06:00;;;;;;;10.27;4.53;;;;;;;;;;8363882;28;20027;-59
2022/08/26 10:10:03;;;;;;;7.65;4.53;;;;;;;;;;8357445;28;20029;-60
2022/08/26 10:14:07;;;;;;;9.43;4.75;;;;;;;;;;8363607;28;20799;-59
2022/08/26 10:18:16;;;;;;;9.60;4.50;;;;;;;;;;8361848;28;20051;-60
2022/08/26 10:22:18;;;;;;;10.07;5.00;;;;;;;;;;8357035;28;20269;-59
2022/08/26 10:26:23;;;;;;;7.93;5.18;;;;;;;;;;8360174;28;20023;-59
2022/08/26 10:30:25;;;;;;;7.22;4.43;;;;;;;;;;8356986;28;20500;-60
2022/08/26 10:34:25;;;;;;;7.15;4.57;;;;;;;;;;8361421;28;20523;-59
2022/08/26 10:38:34;;;;;;;7.15;4.82;;;;;;;;;;8360953;28;20753;-59
2022/08/26 10:42:53;;;;;;;8.75;5.13;;;;;;;;;;8361162;28;20326;-59
2022/08/26 10:46:56;;;;;;;9.85;4.95;;;;;;;;;;8359052;28;20212;-59
2022/08/26 10:50:59;;;;;;;7.90;4.60;;;;;;;;;;8360714;28;20284;-59
2022/08/26 10:55:02;;;;;;;11.88;5.93;;;;;;;;;;8363783;28;20032;-60
2022/08/26 10:59:20;;;;;;;10.95;5.50;;;;;;;;;;8363461;28;20021;-59
2022/08/26 11:03:36;;;;;;;7.93;4.63;;;;;;;;;;8360687;28;20711;-59
2022/08/26 11:07:38;;;;;;;7.47;4.78;;;;;;;;;;8363301;28;20149;-59
2022/08/26 11:11:38;;;;;;;7.18;5.20;;;;;;;;;;8363421;28;20504;-59
2022/08/26 11:15:39;;;;;;;9.00;5.53;;;;;;;;;;8358633;28;20045;-60
2022/08/26 11:19:40;;;;;;;7.53;5.40;;;;;;;;;;8361638;28;20483;-60
2022/08/26 11:23:45;;;;;;;9.05;5.20;;;;;;;;;;8356248;28;20025;-60
2022/08/26 11:27:51;;;;;;;7.60;5.93;;;;;;;;;;8352102;28;20016;-60
2022/08/26 11:31:53;;;;;;;11.50;6.03;;;;;;;;;;8358282;28;20044;-60
2022/08/26 11:35:53;;;;;;;7.03;5.60;;;;;;;;;;8355119;28;20302;-60
2022/08/26 11:39:54;;;;;;;6.88;5.70;;;;;;;;;;8352373;28;20191;-61
2022/08/26 11:43:56;;;;;;;7.75;5.72;;;;;;;;;;8354681;28;20073;-61
2022/08/26 11:47:56;;;;;;;10.13;5.70;;;;;;;;;;8352653;28;20568;-60
2022/08/26 11:52:10;;;;;;;9.32;6.95;;;;;;;;;;8358603;28;20038;-60
2022/08/26 11:56:31;;;;;;;8.57;6.05;;;;;;;;;;8359099;28;20081;-60
2022/08/26 12:00:32;;;;;;;;;;;;;;;;;;8360629;28;20037;-60
2022/08/26 12:04:36;;;;;;;8.17;5.80;;;;;;;;;;8362739;28;19978;-59
2022/08/26 12:08:41;;;;;;;10.02;6.65;;;;;;;;;;8366102;28;20024;-59
2022/08/26 12:12:41;;;;;;;9.05;5.68;;;;;;;;;;8364542;28;20020;-59
2022/08/26 12:16:42;;;;;;;6.60;5.95;;;;;;;;;;8361416;28;20501;-60
2022/08/26 12:20:46;;;;;;;11.93;6.67;;;;;;;;;;8361418;28;20378;-60
2022/08/26 12:24:52;;;;;;;9.27;6.55;;;;;;;;;;8356080;28;20583;-60
2022/08/26 12:28:52;;;;;;;7.35;6.72;;;;;;;;;;8361189;28;20025;-59
2022/08/26 12:33:04;;;;;;;8.68;6.22;;;;;;;;;;8353755;28;20682;-59
2022/08/26 12:37:04;;;;;;;8.50;6.40;;;;;;;;;;8353041;28;20056;-59
2022/08/26 12:41:04;;;;;;;8.75;6.65;;;;;;;;;;8355112;28;20043;-59
2022/08/26 12:45:05;;;;;;;12.20;6.15;;;;;;;;;;8357373;28;20097;-61
2022/08/26 12:49:06;;;;;;;7.28;6.57;;;;;;;;;;8355836;28;20036;-59
2022/08/26 12:53:09;;;;;;;8.93;7.33;;;;;;;;;;8355417;28;20047;-60
2022/08/26 12:57:10;;;;;;;7.38;6.68;;;;;;;;;;8356084;28;20089;-59
2022/08/26 13:01:10;;;;;;;8.60;7.40;;;;;;;;;;8353234;28;21158;-59
2022/08/26 13:05:18;;;;;;;8.73;7.68;;;;;;;;;;8354505;28;20048;-59
2022/08/26 13:09:18;;;;;;;9.90;7.80;;;;;;;;;;8355002;28;20098;-59
2022/08/26 13:13:19;;;;;;;8.75;7.55;;;;;;;;;;8353202;28;20938;-59
2022/08/26 13:17:19;;;;;;;10.10;7.45;;;;;;;;;;8349983;28;20291;-59
2022/08/26 13:21:25;;;;;;;9.30;7.50;;;;;;;;;;8355193;28;20017;-59
2022/08/26 13:25:27;;;;;;;9.13;7.47;;;;;;;;;;8354443;28;20422;-60
2022/08/26 13:29:27;;;;;;;9.52;7.47;;;;;;;;;;8354553;28;20066;-59
2022/08/26 13:33:27;;;;;;;8.88;7.22;;;;;;;;;;8353469;28;20387;-59
2022/08/26 13:37:27;;;;;;;10.88;8.90;;;;;;;;;;8351772;28;20028;-59
2022/08/26 13:41:28;;;;;;;9.70;8.70;;;;;;;;;;8348671;28;20021;-59
2022/08/26 13:45:28;;;;;;;13.60;9.37;;;;;;;;;;8346009;28;20033;-59
2022/08/26 13:49:28;;;;;;;31.25;10.98;;;;;;;;;;8348404;28;20115;-59
2022/08/26 13:53:30;;;;;;;13.93;11.23;;;;;;;;;;8347388;28;20031;-59
2022/08/26 13:57:30;;;;;;;14.32;11.50;;;;;;;;;;8355453;28;20028;-59
2022/08/26 14:01:30;;;;;;;12.67;11.40;;;;;;;;;;8350783;28;20098;-59
2022/08/26 14:05:32;;;;;;;10.25;9.18;;;;;;;;;;8345960;28;20027;-59
2022/08/26 14:09:32;;;;;;;9.85;7.95;;;;;;;;;;8354428;28;20605;-58
2022/08/26 14:13:32;;;;;;;8.25;6.78;;;;;;;;;;8352051;28;20056;-59
2022/08/26 14:17:33;;;;;;;10.45;7.45;;;;;;;;;;8350073;28;20451;-59
2022/08/26 14:21:35;;;;;;;10.18;7.80;;;;;;;;;;8354607;28;20042;-58
2022/08/26 14:25:36;;;;;;;8.05;6.80;;;;;;;;;;8358648;28;20063;-58
2022/08/26 14:29:37;;;;;;;9.48;7.18;;;;;;;;;;8348487;28;20039;-59
2022/08/26 14:33:37;;;;;;;10.88;6.35;;;;;;;;;;8355015;28;20036;-59
2022/08/26 14:37:38;;;;;;;8.60;6.40;;;;;;;;;;8361882;28;20078;-59
2022/08/26 14:41:42;;;;;;;7.72;6.85;;;;;;;;;;8365164;28;20086;-59
2022/08/26 14:45:43;;;;;;;7.45;5.82;;;;;;;;;;8364016;28;20040;-59
2022/08/26 14:49:44;;;;;;;7.68;6.82;;;;;;;;;;8363802;28;20142;-59
2022/08/26 14:58:03;;;;;;;7.55;6.82;;;;;;;;;;8358327;28;20043;-59
2022/08/26 15:02:04;;;;;;;12.07;7.53;;;;;;;;;;8354719;28;20033;-59
2022/08/26 15:06:05;;;;;;;12.32;9.52;;;;;;;;;;8354132;28;20040;-59
2022/08/26 15:10:07;;;;;;;16.60;10.32;;;;;;;;;;8354880;28;20143;-59
2022/08/26 15:14:07;;;;;;;10.55;9.45;;;;;;;;;;8355264;28;20028;-59
2022/08/26 15:18:08;;;;;;;13.07;9.80;;;;;;;;;;8354562;28;20078;-59
2022/08/26 15:22:09;;;;;;;11.63;9.88;;;;;;;;;;8357315;28;20024;-58
2022/08/26 15:26:10;;;;;;;13.15;9.73;;;;;;;;;;8356180;28;20064;-59
2022/08/26 15:30:10;;;;;;;13.77;10.82;;;;;;;;;;8352897;28;20060;-59
2022/08/26 15:34:11;;;;;;;14.77;10.23;;;;;;;;;;8355368;28;20632;-58
2022/08/26 15:38:12;;;;;;;11.60;9.10;;;;;;;;;;8356646;28;20036;-59
2022/08/26 15:42:12;;;;;;;14.30;9.32;;;;;;;;;;8358492;28;20107;-59
2022/08/26 15:46:12;;;;;;;12.73;9.55;;;;;;;;;;8352966;28;20040;-58
2022/08/26 15:50:12;;;;;;;11.68;9.30;;;;;;;;;;8356884;28;20028;-59
2022/08/26 15:54:15;;;;;;;13.20;9.40;;;;;;;;;;8359150;28;20032;-59
2022/08/26 15:58:15;;;;;;;16.13;9.30;;;;;;;;;;8354063;28;20438;-58
2022/08/26 16:02:15;;;;;;;19.40;9.68;;;;;;;;;;8354662;28;20059;-59
2022/08/26 16:06:17;;;;;;;16.27;9.93;;;;;;;;;;8354628;28;20029;-59
2022/08/26 16:10:17;;;;;;;16.83;9.55;;;;;;;;;;8356386;28;20444;-58
2022/08/26 16:14:18;;;;;;;18.45;10.52;;;;;;;;;;8356932;28;20286;-59
2022/08/26 16:18:19;;;;;;;13.80;9.68;;;;;;;;;;8356330;28;20040;-58
2022/08/26 16:22:19;;;;;;;15.45;10.40;;;;;;;;;;8355249;28;20418;-58
2022/08/26 16:26:21;;;;;;;17.65;9.75;;;;;;;;;;8356668;28;20094;-60
2022/08/26 16:30:22;;;;;;;15.68;9.52;;;;;;;;;;8354085;28;20531;-59
2022/08/26 16:34:22;;;;;;;16.35;9.38;;;;;;;;;;8354954;28;20549;-58
2022/08/26 16:38:24;;;;;;;12.95;8.77;;;;;;;;;;8360849;28;20061;-58
2022/08/26 16:42:24;;;;;;;14.60;8.88;;;;;;;;;;8363325;28;20528;-59
2022/08/26 16:46:25;;;;;;;17.25;8.80;;;;;;;;;;8360044;28;20059;-59
2022/08/26 16:50:25;;;;;;;14.00;7.60;;;;;;;;;;8364915;28;20028;-58
2022/08/26 16:54:25;;;;;;;7.82;6.60;;;;;;;;;;8362651;28;20029;-59
2022/08/26 16:58:25;;;;;;;8.90;6.82;;;;;;;;;;8361588;28;20055;-59
2022/08/26 17:02:26;;;;;;;11.63;6.20;;;;;;;;;;8362354;28;20060;-59
2022/08/26 17:06:27;;;;;;;10.48;6.65;;;;;;;;;;8359409;28;20032;-58
2022/08/26 17:10:27;;;;;;;13.32;6.47;;;;;;;;;;8359024;28;20052;-58
2022/08/26 17:14:27;;;;;;;11.85;6.57;;;;;;;;;;8363037;28;20041;-59
2022/08/26 17:18:28;;;;;;;7.87;6.27;;;;;;;;;;8359445;28;20055;-59
2022/08/26 17:22:30;;;;;;;9.48;6.30;;;;;;;;;;8359786;28;20217;-58
2022/08/26 17:26:30;;;;;;;8.40;5.60;;;;;;;;;;8360376;28;20070;-58
2022/08/26 17:30:30;;;;;;;7.50;5.35;;;;;;;;;;8358093;28;20115;-58
2022/08/26 17:34:30;;;;;;;6.10;5.50;;;;;;;;;;8362487;28;20027;-58
2022/08/26 17:38:31;;;;;;;9.90;6.07;;;;;;;;;;8354929;28;20562;-58
2022/08/26 17:42:31;;;;;;;12.13;5.93;;;;;;;;;;8355882;28;20028;-59
2022/08/26 17:46:32;;;;;;;10.10;6.22;;;;;;;;;;8355337;28;20033;-59
2022/08/26 17:50:32;;;;;;;7.72;5.50;;;;;;;;;;8354929;28;20048;-58
2022/08/26 17:54:33;;;;;;;7.10;5.60;;;;;;;;;;8352641;28;20078;-59
2022/08/26 17:58:33;;;;;;;9.48;6.30;;;;;;;;;;8353201;28;20554;-59
2022/08/26 18:02:35;;;;;;;10.18;5.70;;;;;;;;;;8352524;28;20043;-59
2022/08/26 18:06:35;;;;;;;9.63;5.40;;;;;;;;;;8355122;28;20131;-58
2022/08/26 18:10:36;;;;;;;6.20;4.97;;;;;;;;;;8356734;28;20499;-58
2022/08/26 18:14:36;;;;;;;6.53;4.97;;;;;;;;;;8355338;28;20279;-58
2022/08/26 18:18:36;;;;;;;7.28;5.00;;;;;;;;;;8355177;28;20399;-58
2022/08/26 18:22:37;;;;;;;15.73;5.30;;;;;;;;;;8355139;28;20028;-58
2022/08/26 18:26:38;;;;;;;8.68;4.90;;;;;;;;;;8350238;28;20579;-58
2022/08/26 18:30:40;;;;;;;9.80;5.05;;;;;;;;;;8353547;28;20047;-58
2022/08/26 18:34:40;;;;;;;7.65;5.00;;;;;;;;;;8356207;28;20041;-58
2022/08/26 18:38:41;;;;;;;13.38;5.13;;;;;;;;;;8351384;28;20230;-58
2022/08/26 18:42:42;;;;;;;7.75;5.18;;;;;;;;;;8354596;28;20338;-60
2022/08/26 18:46:44;;;;;;;6.78;4.70;;;;;;;;;;8350374;28;20163;-58
2022/08/26 18:50:44;;;;;;;8.90;4.40;;;;;;;;;;8350997;28;20107;-58
2022/08/26 18:54:45;;;;;;;6.27;4.40;;;;;;;;;;8352952;28;20540;-58
2022/08/26 18:58:45;;;;;;;12.05;4.55;;;;;;;;;;8352990;28;20201;-58
2022/08/26 19:02:45;;;;;;;8.27;4.65;;;;;;;;;;8353257;28;20037;-58
2022/08/26 19:06:46;;;;;;;9.65;4.32;;;;;;;;;;8355472;28;20574;-58
2022/08/26 19:10:46;;;;;;;5.32;3.92;;;;;;;;;;8355102;28;20572;-58
2022/08/26 19:14:47;;;;;;;6.85;4.20;;;;;;;;;;8353106;28;20029;-58
2022/08/26 19:18:49;;;;;;;9.50;4.40;;;;;;;;;;8353137;28;20055;-58
2022/08/26 19:22:49;;;;;;;5.70;4.38;;;;;;;;;;8350902;28;20025;-58
2022/08/26 19:26:51;;;;;;;10.48;4.57;;;;;;;;;;8352005;28;20725;-59
2022/08/26 19:30:51;;;;;;;6.00;4.47;;;;;;;;;;8347696;28;20040;-58
2022/08/26 19:34:52;;;;;;;9.88;4.93;;;;;;;;;;8352968;28;20020;-58
2022/08/26 19:38:52;;;;;;;10.02;4.97;;;;;;;;;;8352611;28;20100;-58
2022/08/26 19:42:53;;;;;;;7.22;4.50;;;;;;;;;;8352042;28;20994;-58
2022/08/26 19:46:53;;;;;;;7.63;4.60;;;;;;;;;;8350200;28;20044;-58
2022/08/26 19:50:53;;;;;;;7.85;5.05;;;;;;;;;;8352049;28;20640;-59
2022/08/26 19:54:53;;;;;;;8.10;5.18;;;;;;;;;;8352142;28;20032;-59
2022/08/26 19:58:54;;;;;;;10.10;5.53;;;;;;;;;;8349976;28;20806;-59
2022/08/26 20:02:55;;;;;;;8.88;5.07;;;;;;;;;;8344826;28;20036;-58
2022/08/26 20:06:55;;;;;;;6.03;5.05;;;;;;;;;;8348604;28;20078;-58
2022/08/26 20:10:58;;;;;;;9.63;5.78;;;;;;;;;;8353124;28;20036;-58
2022/08/26 20:14:59;;;;;;;9.52;5.88;;;;;;;;;;8356781;28;20024;-58
2022/08/26 20:23:19;;;;;;;9.10;5.90;;;;;;;;;;8355281;28;20148;-58
2022/08/26 20:27:26;;;;;;;10.93;6.60;;;;;;;;;;8356283;28;20025;-58
2022/08/26 20:31:26;;;;;;;7.38;5.85;;;;;;;;;;8356202;28;20040;-58
2022/08/26 20:35:27;;;;;;;7.35;6.15;;;;;;;;;;8357924;28;20550;-58
2022/08/26 20:39:28;;;;;;;10.00;6.00;;;;;;;;;;8361112;28;20116;-58
2022/08/26 20:43:28;;;;;;;7.20;5.55;;;;;;;;;;8356883;28;20021;-58
2022/08/26 20:47:29;;;;;;;9.15;5.65;;;;;;;;;;8357651;28;20124;-58
2022/08/26 20:51:29;;;;;;;9.18;6.63;;;;;;;;;;8358429;28;20024;-58
2022/08/26 20:55:30;;;;;;;7.72;5.43;;;;;;;;;;8359540;28;20388;-58
2022/08/26 20:59:30;;;;;;;7.32;5.93;;;;;;;;;;8360523;28;20032;-58
2022/08/26 21:03:31;;;;;;;8.70;5.50;;;;;;;;;;8357830;28;20056;-58
2022/08/26 21:07:31;;;;;;;6.65;5.78;;;;;;;;;;8359485;28;20033;-58
2022/08/26 21:11:31;;;;;;;12.85;5.97;;;;;;;;;;8358496;28;20859;-58
2022/08/26 21:15:32;;;;;;;7.05;6.35;;;;;;;;;;8358657;28;20040;-58
2022/08/26 21:19:32;;;;;;;7.60;6.22;;;;;;;;;;8357645;28;20468;-58
2022/08/26 21:23:33;;;;;;;7.65;6.40;;;;;;;;;;8355998;28;20020;-59
2022/08/26 21:27:34;;;;;;;10.40;7.00;;;;;;;;;;8358419;28;20946;-58
2022/08/26 21:31:34;;;;;;;10.18;7.03;;;;;;;;;;8357544;28;20054;-58
2022/08/26 21:35:35;;;;;;;8.43;6.70;;;;;;;;;;8359277;28;20028;-59
2022/08/26 21:39:35;;;;;;;8.52;6.30;;;;;;;;;;8362058;28;20259;-58
2022/08/26 21:43:36;;;;;;;12.80;7.30;;;;;;;;;;8357001;28;20024;-58
2022/08/26 21:47:37;;;;;;;8.15;6.30;;;;;;;;;;8357657;28;20538;-59
2022/08/26 21:51:39;;;;;;;8.00;6.60;;;;;;;;;;8356480;28;20029;-58
2022/08/26 21:55:41;;;;;;;8.90;6.07;;;;;;;;;;8358426;28;20572;-58
2022/08/26 21:59:41;;;;;;;7.57;6.28;;;;;;;;;;8358289;28;20107;-58
2022/08/26 22:03:41;;;;;;;9.93;6.45;;;;;;;;;;8356378;28;20051;-58
2022/08/26 22:07:41;;;;;;;9.75;6.60;;;;;;;;;;8355826;28;20059;-58
2022/08/26 22:11:42;;;;;;;10.40;5.88;;;;;;;;;;8356180;28;20513;-58
2022/08/26 22:15:44;;;;;;;7.25;5.50;;;;;;;;;;8355352;28;20353;-59
2022/08/26 22:19:44;;;;;;;8.25;6.00;;;;;;;;;;8354165;28;20292;-58
2022/08/26 22:23:45;;;;;;;8.20;6.67;;;;;;;;;;8355927;28;20029;-58
2022/08/26 22:27:45;;;;;;;9.88;5.68;;;;;;;;;;8354731;28;20282;-58
2022/08/26 22:31:45;;;;;;;11.85;6.15;;;;;;;;;;8354513;28;20047;-58
2022/08/26 22:35:47;;;;;;;11.10;6.23;;;;;;;;;;8353561;28;20376;-58
2022/08/26 22:39:47;;;;;;;8.82;5.80;;;;;;;;;;8352867;28;20021;-58
2022/08/26 22:43:47;;;;;;;6.57;5.63;;;;;;;;;;8356978;28;20640;-58
2022/08/26 22:47:48;;;;;;;6.43;5.60;;;;;;;;;;8353709;28;20489;-58
2022/08/26 22:51:48;;;;;;;8.25;5.68;;;;;;;;;;8351506;28;20503;-58
2022/08/26 22:55:48;;;;;;;8.38;5.68;;;;;;;;;;8355189;28;20033;-58
2022/08/26 22:59:49;;;;;;;9.80;6.30;;;;;;;;;;8354985;28;20020;-58
2022/08/26 23:03:49;;;;;;;9.00;6.35;;;;;;;;;;8352437;28;20502;-58
2022/08/26 23:07:49;;;;;;;9.43;5.88;;;;;;;;;;8351515;28;20489;-58
2022/08/26 23:11:49;;;;;;;10.60;5.80;;;;;;;;;;8350273;28;20048;-58
2022/08/26 23:15:58;;;;;;;9.00;5.88;;;;;;;;;;8351557;28;20040;-58
2022/08/26 23:19:58;;;;;;;9.45;6.30;;;;;;;;;;8352682;28;20412;-58
2022/08/26 23:23:58;;;;;;;8.07;6.20;;;;;;;;;;8352928;28;20036;-58
2022/08/26 23:27:59;;;;;;;10.67;6.50;;;;;;;;;;8355808;28;20696;-58
2022/08/26 23:31:59;;;;;;;10.05;6.20;;;;;;;;;;8352153;28;20306;-58
2022/08/26 23:36:04;;;;;;;7.15;5.72;;;;;;;;;;8352421;28;20488;-58
2022/08/26 23:40:07;;;;;;;9.98;6.28;;;;;;;;;;8354282;28;20052;-58
2022/08/26 23:44:07;;;;;;;10.32;6.05;;;;;;;;;;8355459;28;20024;-58
2022/08/26 23:48:07;;;;;;;7.23;6.40;;;;;;;;;;8361729;28;20041;-58
2022/08/26 23:56:27;;;;;;;9.85;5.68;;;;;;;;;;8363027;28;20040;-59
